createdAt,value
2023-02-26T00:01:25.386Z,91.90
2023-02-26T00:03:59.223Z,91.60
2023-02-26T00:06:32.838Z,91.84
2023-02-26T00:09:05.422Z,91.84
2023-02-26T00:11:38.288Z,92.25
2023-02-26T00:14:14.573Z,92.07
2023-02-26T00:16:51.632Z,92.22
2023-02-26T00:19:24.337Z,92.36
2023-02-26T00:21:57.316Z,92.18
2023-02-26T00:24:28.992Z,92.26
2023-02-26T00:27:01.271Z,92.00
2023-02-26T00:29:34.113Z,91.83
2023-02-26T00:32:06.936Z,91.81
2023-02-26T00:34:40.531Z,91.75
2023-02-26T00:37:25.659Z,91.45
2023-02-26T00:40:11.999Z,91.70
2023-02-26T00:42:44.663Z,91.50
2023-02-26T00:45:17.834Z,91.81
2023-02-26T00:47:56.822Z,91.26
2023-02-26T00:50:30.720Z,91.33
2023-02-26T00:53:12.963Z,91.29
2023-02-26T00:55:44.650Z,91.15
2023-02-26T00:58:16.459Z,90.74
2023-02-26T01:00:48.742Z,90.95
2023-02-26T01:03:21.569Z,90.57
2023-02-26T01:05:51.965Z,90.21
2023-02-26T01:08:29.713Z,89.97
2023-02-26T01:11:02.431Z,89.90
2023-02-26T01:13:33.082Z,89.78
2023-02-26T01:16:10.300Z,89.94
2023-02-26T01:18:49.196Z,90.09
2023-02-26T01:21:27.964Z,90.03
2023-02-26T01:24:03.472Z,89.84
2023-02-26T01:26:35.582Z,90.44
2023-02-26T01:29:08.032Z,90.36
2023-02-26T01:31:50.274Z,90.63
2023-02-26T01:34:33.118Z,90.52
2023-02-26T01:37:13.607Z,90.11
2023-02-26T01:39:51.336Z,90.19
2023-02-26T01:42:26.825Z,90.09
2023-02-26T01:45:05.187Z,90.31
2023-02-26T01:47:46.774Z,90.24
2023-02-26T01:50:25.696Z,90.21
2023-02-26T01:53:22.752Z,90.44
2023-02-26T01:55:59.636Z,90.34
2023-02-26T01:58:35.111Z,90.31
2023-02-26T02:01:08.303Z,90.65
2023-02-26T02:03:43.004Z,90.59
2023-02-26T02:06:20.667Z,90.55
2023-02-26T02:08:53.425Z,90.68
2023-02-26T02:11:25.506Z,91.23
2023-02-26T02:14:11.370Z,91.45
2023-02-26T02:16:54.319Z,91.36
2023-02-26T02:19:51.805Z,91.48
2023-02-26T02:22:41.536Z,91.10
2023-02-26T02:25:41.841Z,91.11
2023-02-26T02:28:30.854Z,91.04
2023-02-26T02:31:09.357Z,91.26
2023-02-26T02:33:51.487Z,91.44
2023-02-26T02:36:30.542Z,91.29
2023-02-26T02:39:07.171Z,90.93
2023-02-26T02:41:44.820Z,90.88
2023-02-26T02:44:20.186Z,90.61
2023-02-26T02:46:57.681Z,90.51
2023-02-26T02:49:35.185Z,90.45
2023-02-26T02:52:13.931Z,90.50
2023-02-26T02:54:52.302Z,90.64
2023-02-26T02:57:29.661Z,91.10
2023-02-26T03:00:06.361Z,91.36
2023-02-26T03:02:44.347Z,91.32
2023-02-26T03:05:19.292Z,91.57
2023-02-26T03:07:57.681Z,91.80
2023-02-26T03:10:30.348Z,91.74
2023-02-26T03:13:02.593Z,91.79
2023-02-26T03:15:42.490Z,91.87
2023-02-26T03:18:26.520Z,91.81
2023-02-26T03:21:07.673Z,91.80
2023-02-26T03:23:46.346Z,92.17
2023-02-26T03:26:25.555Z,92.43
2023-02-26T03:29:03.925Z,92.51
2023-02-26T03:31:42.568Z,92.85
2023-02-26T03:34:24.154Z,92.72
2023-02-26T03:36:59.120Z,92.86
2023-02-26T03:39:39.046Z,92.91
2023-02-26T03:42:19.833Z,92.70
2023-02-26T03:44:59.509Z,92.79
2023-02-26T03:47:34.658Z,92.72
2023-02-26T03:50:09.932Z,92.96
2023-02-26T03:52:52.075Z,93.28
2023-02-26T03:55:50.394Z,93.59
2023-02-26T03:58:58.298Z,93.48
2023-02-26T04:01:32.868Z,93.57
2023-02-26T04:04:08.614Z,93.89
2023-02-26T04:06:40.850Z,93.65
2023-02-26T04:09:15.228Z,93.41
2023-02-26T04:11:48.773Z,93.35
2023-02-26T04:14:20.564Z,93.36
2023-02-26T04:16:51.666Z,93.45
2023-02-26T04:19:23.877Z,93.70
2023-02-26T04:21:55.811Z,93.86
2023-02-26T04:24:27.670Z,93.91
2023-02-26T04:27:00.174Z,94.18
2023-02-26T04:29:32.628Z,94.19
2023-02-26T04:32:04.817Z,94.27
2023-02-26T04:34:37.132Z,93.95
2023-02-26T04:37:08.913Z,94.09
2023-02-26T04:39:40.013Z,94.09
2023-02-26T04:42:14.104Z,94.02
2023-02-26T04:44:45.861Z,94.01
2023-02-26T04:47:18.169Z,94.19
2023-02-26T04:49:50.054Z,93.99
2023-02-26T04:52:21.866Z,93.71
2023-02-26T04:54:53.790Z,93.63
2023-02-26T04:57:25.502Z,93.69
2023-02-26T04:59:57.527Z,93.87
2023-02-26T05:02:32.417Z,93.64
2023-02-26T05:05:04.694Z,93.51
2023-02-26T05:07:36.431Z,93.43
2023-02-26T05:10:10.210Z,93.07
2023-02-26T05:12:42.061Z,92.89
2023-02-26T05:15:14.211Z,92.76
2023-02-26T05:17:47.888Z,92.91
2023-02-26T05:20:20.412Z,92.62
2023-02-26T05:22:50.813Z,92.29
2023-02-26T05:25:22.572Z,92.02
2023-02-26T05:27:54.352Z,92.10
2023-02-26T05:30:26.503Z,92.07
2023-02-26T05:32:58.631Z,91.58
2023-02-26T05:35:30.480Z,91.57
2023-02-26T05:38:02.204Z,91.51
2023-02-26T05:40:33.868Z,91.69
2023-02-26T05:43:05.821Z,91.82
2023-02-26T05:45:37.574Z,91.96
2023-02-26T05:48:11.126Z,91.89
2023-02-26T05:50:42.859Z,91.80
2023-02-26T05:53:14.556Z,91.77
2023-02-26T05:55:46.407Z,91.61
2023-02-26T05:58:18.109Z,91.83
2023-02-26T06:00:49.924Z,91.52
2023-02-26T06:03:22.284Z,91.91
2023-02-26T06:05:54.376Z,91.96
2023-02-26T06:08:26.729Z,91.41
2023-02-26T06:10:58.900Z,91.09
2023-02-26T06:13:30.940Z,91.10
2023-02-26T06:16:02.738Z,91.37
2023-02-26T06:18:35.167Z,91.61
2023-02-26T06:21:08.205Z,91.55
2023-02-26T06:23:40.056Z,91.99
2023-02-26T06:26:11.845Z,92.11
2023-02-26T06:28:43.668Z,92.00
2023-02-26T06:31:16.123Z,92.05
2023-02-26T06:33:48.070Z,92.36
2023-02-26T06:36:19.996Z,92.30
2023-02-26T06:38:51.686Z,92.54
2023-02-26T06:41:23.411Z,92.60
2023-02-26T06:43:55.529Z,92.71
2023-02-26T06:46:27.592Z,92.76
2023-02-26T06:49:00.330Z,92.85
2023-02-26T06:51:32.469Z,92.64
2023-02-26T06:54:04.412Z,92.73
2023-02-26T06:56:36.175Z,92.48
2023-02-26T06:59:08.058Z,92.52
2023-02-26T07:01:39.974Z,92.27
2023-02-26T07:04:12.419Z,92.19
2023-02-26T07:06:43.109Z,93.08
2023-02-26T07:09:15.284Z,93.83
2023-02-26T07:11:47.097Z,94.22
2023-02-26T07:14:18.970Z,95.17
2023-02-26T07:16:53.874Z,95.99
2023-02-26T07:19:25.629Z,96.70
2023-02-26T07:21:57.864Z,97.27
2023-02-26T07:24:30.139Z,97.67
2023-02-26T07:27:01.904Z,97.69
2023-02-26T07:29:33.770Z,97.75
2023-02-26T07:32:06.018Z,97.37
2023-02-26T07:34:38.291Z,96.32
2023-02-26T07:37:10.711Z,95.90
2023-02-26T07:39:42.436Z,95.19
2023-02-26T07:42:17.203Z,94.70
2023-02-26T07:44:49.019Z,94.08
2023-02-26T07:47:20.933Z,93.63
2023-02-26T07:49:52.717Z,92.62
2023-02-26T07:52:24.487Z,92.30
2023-02-26T07:54:56.386Z,92.22
2023-02-26T07:57:28.226Z,91.85
2023-02-26T08:00:00.031Z,91.45
2023-02-26T08:02:32.015Z,90.84
2023-02-26T08:05:04.283Z,89.99
2023-02-26T08:07:37.636Z,88.57
2023-02-26T08:10:13.884Z,87.87
2023-02-26T08:12:45.642Z,87.44
2023-02-26T08:15:18.203Z,87.20
2023-02-26T08:17:52.687Z,86.83
2023-02-26T08:20:24.698Z,86.20
2023-02-26T08:22:56.563Z,85.94
2023-02-26T08:25:28.381Z,85.96
2023-02-26T08:28:01.160Z,85.83
2023-02-26T08:30:31.467Z,85.25
2023-02-26T08:33:03.816Z,85.09
2023-02-26T08:35:34.623Z,85.13
2023-02-26T08:38:06.499Z,84.82
2023-02-26T08:40:42.386Z,84.80
2023-02-26T08:43:14.705Z,84.89
2023-02-26T08:45:49.560Z,84.03
2023-02-26T08:48:21.256Z,84.24
2023-02-26T08:50:53.773Z,83.95
2023-02-26T08:53:25.564Z,83.79
2023-02-26T08:55:57.228Z,83.42
2023-02-26T08:58:31.229Z,83.15
2023-02-26T09:01:03.821Z,83.00
2023-02-26T09:03:35.759Z,83.34
2023-02-26T09:06:07.994Z,83.10
2023-02-26T09:08:40.105Z,82.07
2023-02-26T09:11:12.085Z,79.83
2023-02-26T09:13:44.102Z,80.13
2023-02-26T09:16:16.627Z,81.25
2023-02-26T09:18:49.132Z,81.65
2023-02-26T09:21:20.921Z,81.56
2023-02-26T09:23:53.108Z,80.98
2023-02-26T09:26:25.388Z,81.07
2023-02-26T09:28:57.514Z,80.69
2023-02-26T09:31:29.403Z,80.14
2023-02-26T09:34:01.662Z,80.12
2023-02-26T09:36:33.486Z,79.84
2023-02-26T09:39:05.535Z,79.10
2023-02-26T09:41:42.443Z,78.99
2023-02-26T09:44:21.900Z,78.66
2023-02-26T09:47:06.923Z,78.35
2023-02-26T09:49:49.357Z,77.72
2023-02-26T09:52:25.585Z,75.59
2023-02-26T09:55:02.275Z,74.46
2023-02-26T09:57:37.069Z,73.04
2023-02-26T10:00:34.220Z,72.38
2023-02-26T10:03:19.937Z,72.51
2023-02-26T10:06:22.538Z,71.26
2023-02-26T10:09:21.656Z,70.52
2023-02-26T10:11:58.296Z,69.53
2023-02-26T10:14:37.084Z,68.31
2023-02-26T10:17:20.194Z,66.99
2023-02-26T10:19:57.350Z,67.60
2023-02-26T10:22:33.998Z,66.58
2023-02-26T10:25:12.120Z,66.24
2023-02-26T10:27:51.329Z,66.31
2023-02-26T10:30:31.605Z,66.08
2023-02-26T10:33:13.249Z,66.50
2023-02-26T10:35:52.107Z,66.01
2023-02-26T10:38:29.411Z,65.67
2023-02-26T10:41:05.867Z,65.85
2023-02-26T10:43:41.851Z,66.34
2023-02-26T10:46:27.847Z,65.04
2023-02-26T10:49:23.023Z,65.24
2023-02-26T10:51:55.428Z,65.24
2023-02-26T10:54:34.595Z,64.71
2023-02-26T10:57:07.239Z,62.97
2023-02-26T10:59:37.539Z,61.73
2023-02-26T11:02:37.784Z,62.20
2023-02-26T11:05:19.403Z,62.38
2023-02-26T11:07:55.573Z,63.68
2023-02-26T11:10:41.453Z,63.33
2023-02-26T11:13:13.907Z,62.63
2023-02-26T11:15:47.472Z,62.74
2023-02-26T11:18:24.580Z,62.72
2023-02-26T11:20:59.642Z,63.33
2023-02-26T11:23:34.529Z,64.18
2023-02-26T11:26:10.833Z,62.86
2023-02-26T11:28:47.366Z,62.37
2023-02-26T11:31:22.281Z,62.72
2023-02-26T11:33:56.849Z,62.73
2023-02-26T11:36:31.722Z,62.22
2023-02-26T11:39:08.291Z,62.35
2023-02-26T11:41:42.574Z,62.76
2023-02-26T11:44:19.368Z,62.39
2023-02-26T11:46:57.107Z,62.65
2023-02-26T11:49:30.555Z,62.06
2023-02-26T11:52:22.374Z,62.86
2023-02-26T11:55:00.663Z,62.58
2023-02-26T11:57:34.026Z,62.57
2023-02-26T12:00:21.735Z,62.16
2023-02-26T12:02:57.800Z,62.89
2023-02-26T12:05:29.973Z,63.19
2023-02-26T12:08:02.603Z,62.70
2023-02-26T12:10:41.863Z,63.21
2023-02-26T12:13:21.094Z,63.53
2023-02-26T12:15:59.843Z,63.99
2023-02-26T12:18:55.846Z,63.52
2023-02-26T12:21:45.362Z,63.58
2023-02-26T12:24:34.587Z,63.14
2023-02-26T12:27:15.246Z,62.64
2023-02-26T12:30:04.706Z,62.58
2023-02-26T12:32:52.393Z,62.78
2023-02-26T12:35:51.050Z,62.64
2023-02-26T12:38:36.094Z,61.24
2023-02-26T12:41:43.606Z,60.86
2023-02-26T12:44:32.990Z,61.67
2023-02-26T12:47:20.456Z,61.00
2023-02-26T12:50:10.609Z,61.11
2023-02-26T12:52:56.970Z,61.84
2023-02-26T12:55:39.682Z,61.04
2023-02-26T12:58:28.090Z,60.95
2023-02-26T13:01:16.281Z,60.75
2023-02-26T13:04:17.973Z,61.28
2023-02-26T13:07:07.122Z,61.55
2023-02-26T13:09:53.501Z,60.51
2023-02-26T13:12:37.786Z,59.39
2023-02-26T13:15:36.481Z,59.90
2023-02-26T13:18:16.691Z,60.14
2023-02-26T13:21:00.932Z,60.11
2023-02-26T13:23:37.700Z,59.32
2023-02-26T13:26:12.998Z,58.56
2023-02-26T13:28:48.984Z,58.88
2023-02-26T13:31:27.633Z,58.14
2023-02-26T13:34:03.614Z,58.20
2023-02-26T13:36:35.871Z,58.44
2023-02-26T13:39:24.161Z,58.81
2023-02-26T13:42:02.884Z,58.33
2023-02-26T13:44:43.715Z,57.70
2023-02-26T13:47:42.533Z,57.00
2023-02-26T13:50:28.311Z,55.89
2023-02-26T13:53:37.006Z,54.53
2023-02-26T13:56:17.212Z,54.34
2023-02-26T13:58:53.609Z,53.79
2023-02-26T14:01:33.730Z,53.99
2023-02-26T14:04:26.917Z,54.81
2023-02-26T14:07:01.631Z,55.39
2023-02-26T14:09:45.546Z,56.08
2023-02-26T14:12:35.043Z,55.51
2023-02-26T14:15:38.477Z,55.31
2023-02-26T14:18:20.717Z,54.92
2023-02-26T14:20:53.869Z,54.38
2023-02-26T14:23:38.268Z,53.83
2023-02-26T14:26:19.456Z,53.17
2023-02-26T14:29:15.780Z,52.79
2023-02-26T14:32:03.828Z,53.51
2023-02-26T14:34:44.029Z,53.82
2023-02-26T14:37:21.393Z,53.57
2023-02-26T14:39:59.014Z,54.61
2023-02-26T14:42:38.468Z,54.96
2023-02-26T14:45:24.488Z,53.90
2023-02-26T14:47:58.744Z,53.26
2023-02-26T14:50:40.467Z,53.08
2023-02-26T14:53:37.457Z,53.83
2023-02-26T14:56:19.965Z,52.47
2023-02-26T14:59:20.077Z,52.43
2023-02-26T15:02:02.844Z,51.59
2023-02-26T15:05:11.228Z,50.95
2023-02-26T15:08:01.465Z,50.20
2023-02-26T15:10:45.952Z,50.23
2023-02-26T15:13:32.940Z,49.89
2023-02-26T15:16:13.235Z,49.73
2023-02-26T15:19:12.293Z,50.34
2023-02-26T15:21:59.807Z,51.17
2023-02-26T15:24:33.582Z,50.97
2023-02-26T15:27:10.132Z,50.22
2023-02-26T15:29:44.139Z,50.41
2023-02-26T15:32:27.355Z,51.42
2023-02-26T15:35:02.587Z,51.80
2023-02-26T15:37:35.485Z,51.76
2023-02-26T15:40:09.837Z,52.35
2023-02-26T15:42:45.131Z,51.66
2023-02-26T15:45:22.644Z,51.37
2023-02-26T15:48:02.711Z,51.84
2023-02-26T15:50:37.850Z,52.42
2023-02-26T15:53:14.138Z,53.10
2023-02-26T15:55:51.597Z,53.13
2023-02-26T15:58:31.457Z,52.68
2023-02-26T16:01:05.059Z,51.94
2023-02-26T16:03:39.143Z,53.10
2023-02-26T16:06:16.889Z,52.94
2023-02-26T16:08:48.894Z,53.39
2023-02-26T16:11:22.436Z,53.22
2023-02-26T16:13:58.962Z,53.85
2023-02-26T16:16:40.556Z,54.06
2023-02-26T16:19:16.507Z,54.79
2023-02-26T16:21:49.585Z,55.30
2023-02-26T16:24:23.314Z,55.18
2023-02-26T16:27:01.928Z,57.11
2023-02-26T16:29:37.000Z,57.03
2023-02-26T16:32:12.916Z,57.21
2023-02-26T16:34:50.515Z,58.11
2023-02-26T16:37:32.122Z,59.36
2023-02-26T16:40:20.057Z,61.07
2023-02-26T16:43:01.973Z,62.02
2023-02-26T16:45:50.962Z,62.57
2023-02-26T16:48:27.279Z,62.98
2023-02-26T16:51:02.271Z,63.68
2023-02-26T16:53:40.195Z,64.14
2023-02-26T16:56:16.867Z,64.89
2023-02-26T16:58:52.557Z,64.86
2023-02-26T17:01:26.007Z,64.63
2023-02-26T17:04:04.158Z,65.21
2023-02-26T17:06:41.885Z,65.72
2023-02-26T17:09:31.663Z,66.29
2023-02-26T17:12:18.703Z,66.08
2023-02-26T17:14:56.908Z,66.55
2023-02-26T17:17:29.285Z,67.19
2023-02-26T17:20:00.930Z,67.31
2023-02-26T17:22:33.076Z,67.24
2023-02-26T17:25:06.571Z,67.55
2023-02-26T17:27:39.585Z,67.47
2023-02-26T17:30:17.372Z,67.05
2023-02-26T17:32:49.906Z,67.50
2023-02-26T17:35:21.882Z,67.26
2023-02-26T17:37:54.698Z,67.46
2023-02-26T17:40:32.339Z,68.38
2023-02-26T17:43:04.617Z,68.26
2023-02-26T17:45:39.109Z,68.79
2023-02-26T17:48:12.140Z,68.39
2023-02-26T17:50:47.881Z,68.80
2023-02-26T17:53:21.092Z,69.07
2023-02-26T17:55:56.273Z,69.29
2023-02-26T17:58:32.004Z,69.48
2023-02-26T18:01:04.577Z,69.56
2023-02-26T18:03:38.234Z,69.67
2023-02-26T18:06:13.398Z,69.76
2023-02-26T18:08:46.707Z,69.74
2023-02-26T18:11:20.517Z,70.15
2023-02-26T18:13:52.530Z,70.26
2023-02-26T18:16:33.306Z,70.23
2023-02-26T18:19:06.294Z,70.47
2023-02-26T18:21:38.108Z,70.23
2023-02-26T18:24:11.226Z,69.96
2023-02-26T18:26:43.446Z,69.25
2023-02-26T18:29:15.282Z,70.00
2023-02-26T18:31:47.220Z,70.07
2023-02-26T18:34:18.359Z,70.29
2023-02-26T18:36:50.493Z,70.41
2023-02-26T18:39:24.105Z,70.65
2023-02-26T18:41:55.927Z,71.10
2023-02-26T18:44:29.322Z,71.29
2023-02-26T18:47:01.483Z,70.75
2023-02-26T18:49:33.419Z,71.02
2023-02-26T18:52:05.294Z,70.42
2023-02-26T18:54:37.832Z,69.69
2023-02-26T18:57:10.205Z,68.69
2023-02-26T18:59:42.005Z,68.09
2023-02-26T19:02:15.576Z,68.48
2023-02-26T19:04:48.132Z,68.23
2023-02-26T19:07:20.051Z,68.61
2023-02-26T19:09:52.050Z,68.44
2023-02-26T19:12:26.274Z,68.49
2023-02-26T19:14:58.242Z,68.40
2023-02-26T19:17:30.016Z,67.69
2023-02-26T19:20:01.741Z,67.29
2023-02-26T19:22:34.232Z,67.67
2023-02-26T19:25:07.478Z,67.89
2023-02-26T19:27:39.724Z,67.64
2023-02-26T19:30:11.851Z,67.88
2023-02-26T19:32:43.893Z,67.21
2023-02-26T19:35:16.112Z,66.79
2023-02-26T19:37:48.374Z,66.42
2023-02-26T19:40:21.103Z,66.03
2023-02-26T19:42:53.606Z,65.72
2023-02-26T19:45:25.412Z,65.50
2023-02-26T19:47:57.181Z,65.70
2023-02-26T19:50:29.170Z,66.51
2023-02-26T19:53:00.889Z,65.47
2023-02-26T19:55:32.631Z,65.33
2023-02-26T19:58:04.855Z,64.68
2023-02-26T20:00:36.713Z,64.15
2023-02-26T20:03:09.284Z,62.77
2023-02-26T20:05:41.665Z,63.20
2023-02-26T20:08:13.579Z,63.55
2023-02-26T20:10:46.385Z,63.00
2023-02-26T20:13:18.186Z,62.69
2023-02-26T20:15:53.444Z,63.33
2023-02-26T20:18:27.509Z,62.98
2023-02-26T20:20:59.796Z,63.17
2023-02-26T20:23:34.591Z,63.38
2023-02-26T20:26:09.101Z,62.72
2023-02-26T20:28:40.909Z,62.52
2023-02-26T20:31:13.215Z,63.23
2023-02-26T20:33:45.655Z,63.59
2023-02-26T20:36:17.613Z,63.43
2023-02-26T20:38:49.947Z,63.76
2023-02-26T20:41:21.868Z,63.20
2023-02-26T20:43:53.847Z,63.87
2023-02-26T20:46:25.670Z,64.52
2023-02-26T20:48:59.750Z,64.32
2023-02-26T20:51:31.773Z,63.80
2023-02-26T20:54:03.630Z,63.38
2023-02-26T20:56:38.524Z,63.85
2023-02-26T20:59:10.580Z,63.90
2023-02-26T21:01:42.401Z,64.05
2023-02-26T21:04:14.403Z,64.02
2023-02-26T21:06:46.866Z,64.31
2023-02-26T21:09:18.557Z,63.96
2023-02-26T21:11:52.442Z,64.65
2023-02-26T21:14:26.712Z,64.12
2023-02-26T21:17:01.909Z,64.87
2023-02-26T21:19:34.656Z,64.14
2023-02-26T21:22:06.671Z,63.40
2023-02-26T21:24:38.393Z,63.14
2023-02-26T21:27:10.224Z,63.20
2023-02-26T21:29:42.091Z,63.40
2023-02-26T21:32:14.139Z,65.16
2023-02-26T21:34:47.134Z,64.27
2023-02-26T21:37:19.333Z,63.98
2023-02-26T21:39:51.257Z,64.17
2023-02-26T21:42:23.479Z,64.62
2023-02-26T21:44:55.166Z,64.80
2023-02-26T21:47:27.045Z,64.82
2023-02-26T21:49:58.682Z,65.49
2023-02-26T21:52:30.344Z,64.78
2023-02-26T21:55:02.095Z,64.80
2023-02-26T21:57:33.859Z,64.68
2023-02-26T22:00:10.080Z,64.85
2023-02-26T22:02:45.078Z,65.25
2023-02-26T22:05:17.191Z,64.75
2023-02-26T22:07:49.133Z,65.36
2023-02-26T22:10:21.051Z,64.98
2023-02-26T22:12:52.705Z,65.38
2023-02-26T22:15:24.411Z,65.69
2023-02-26T22:17:56.150Z,64.87
2023-02-26T22:20:28.162Z,65.52
2023-02-26T22:23:00.642Z,65.72
2023-02-26T22:25:32.681Z,65.70
2023-02-26T22:28:05.566Z,65.40
2023-02-26T22:30:37.736Z,65.52
2023-02-26T22:33:09.610Z,65.80
2023-02-26T22:35:41.981Z,65.83
2023-02-26T22:38:14.397Z,65.95
2023-02-26T22:40:46.089Z,65.94
2023-02-26T22:43:18.083Z,65.77
2023-02-26T22:45:50.454Z,66.64
2023-02-26T22:48:23.340Z,66.88
2023-02-26T22:50:55.270Z,66.63
2023-02-26T22:53:26.977Z,67.32
2023-02-26T22:55:59.092Z,67.49
2023-02-26T22:58:31.105Z,67.03
2023-02-26T23:01:04.999Z,67.36
2023-02-26T23:03:37.156Z,67.93
2023-02-26T23:06:10.366Z,68.24
2023-02-26T23:08:42.698Z,68.53
2023-02-26T23:11:14.412Z,68.61
2023-02-26T23:13:46.188Z,68.95
2023-02-26T23:16:18.120Z,69.05
2023-02-26T23:18:49.849Z,68.85
2023-02-26T23:21:21.630Z,68.95
2023-02-26T23:23:53.302Z,68.98
2023-02-26T23:26:25.288Z,68.95
2023-02-26T23:28:57.027Z,69.35
2023-02-26T23:31:29.838Z,69.32
2023-02-26T23:34:01.912Z,69.50
2023-02-26T23:36:33.691Z,70.45
2023-02-26T23:39:06.584Z,70.48
2023-02-26T23:41:38.427Z,70.55
2023-02-26T23:44:12.560Z,71.05
2023-02-26T23:46:45.231Z,70.89
2023-02-26T23:49:17.346Z,71.56
2023-02-26T23:51:49.335Z,71.46
2023-02-26T23:54:20.965Z,71.56
2023-02-26T23:56:53.015Z,71.85
2023-02-26T23:59:24.855Z,72.15
